createdAt,value
2019-05-12T00:03:01.190Z,6
2019-05-12T00:08:03.701Z,6
2019-05-12T00:13:08.289Z,6
2019-05-12T00:18:09.040Z,5
2019-05-12T00:23:23.680Z,5
2019-05-12T00:28:13.369Z,4
2019-05-12T00:33:17.895Z,4
2019-05-12T00:38:18.269Z,4
2019-05-12T00:43:20.671Z,4
2019-05-12T00:48:23.138Z,4
2019-05-12T00:53:36.950Z,4
2019-05-12T00:58:28.028Z,4
2019-05-12T01:03:30.467Z,4
2019-05-12T01:08:32.926Z,4
2019-05-12T01:13:35.362Z,3
2019-05-12T01:23:53.622Z,2
2019-05-12T01:28:42.717Z,3
2019-05-12T01:33:45.238Z,3
2019-05-12T01:38:48.245Z,3
2019-05-12T01:43:49.960Z,4
2019-05-12T01:48:52.615Z,4
2019-05-12T01:54:08.477Z,3
2019-05-12T01:58:57.824Z,3
2019-05-12T02:03:59.704Z,3
2019-05-12T02:09:02.211Z,3
2019-05-12T02:14:04.627Z,2
2019-05-12T02:19:08.959Z,2
2019-05-12T02:24:23.215Z,2
2019-05-12T02:29:11.921Z,2
2019-05-12T02:34:15.593Z,2
2019-05-12T02:39:16.867Z,3
2019-05-12T02:44:19.276Z,2
2019-05-12T02:49:24.383Z,3
2019-05-12T02:54:25.241Z,3
2019-05-12T02:59:26.683Z,3
2019-05-12T03:04:28.989Z,4
2019-05-12T03:09:34.710Z,4
2019-05-12T03:14:39.983Z,4
2019-05-12T03:19:36.322Z,3
2019-05-12T03:24:38.740Z,4
2019-05-12T03:34:47.252Z,3
2019-05-12T03:39:47.065Z,3
2019-05-12T03:44:48.582Z,3
2019-05-12T03:49:54.092Z,3
2019-05-12T03:54:55.948Z,3
2019-05-12T03:59:55.873Z,3
2019-05-12T04:04:58.274Z,3
2019-05-12T04:10:00.793Z,3
2019-05-12T04:15:05.026Z,3
2019-05-12T04:20:05.587Z,3
2019-05-12T04:25:08.150Z,3
2019-05-12T04:30:10.652Z,2
2019-05-12T04:35:14.763Z,2
2019-05-12T04:40:16.380Z,2
2019-05-12T04:45:17.815Z,2
2019-05-12T04:50:20.272Z,3
2019-05-12T04:55:25.532Z,3
2019-05-12T05:00:25.814Z,3
2019-05-12T05:05:27.561Z,3
2019-05-12T05:10:30.042Z,3
2019-05-12T05:15:34.652Z,3
2019-05-12T05:20:34.950Z,3
2019-05-12T05:25:37.375Z,3
2019-05-12T05:30:39.862Z,4
2019-05-12T05:35:43.525Z,4
2019-05-12T05:40:44.639Z,4
2019-05-12T05:45:47.128Z,4
2019-05-12T05:50:49.552Z,4
2019-05-12T05:55:56.102Z,6
2019-05-12T06:01:02.816Z,5
2019-05-12T06:06:01.309Z,5
2019-05-12T06:10:59.282Z,5
2019-05-12T06:16:04.164Z,5
2019-05-12T06:21:04.161Z,6
2019-05-12T06:26:06.841Z,6
2019-05-12T06:31:09.058Z,5
2019-05-12T06:36:20.449Z,6
2019-05-12T06:41:20.425Z,5
2019-05-12T06:46:20.620Z,6
2019-05-12T06:51:22.882Z,6
2019-05-12T06:56:23.447Z,7
2019-05-12T07:01:24.251Z,8
2019-05-12T07:06:26.154Z,7
2019-05-12T07:11:41.465Z,7
2019-05-12T07:16:31.035Z,7
2019-05-12T07:21:33.678Z,7
2019-05-12T07:26:35.888Z,7
2019-05-12T07:31:38.331Z,7
2019-05-12T07:36:40.750Z,7
2019-05-12T07:41:50.696Z,7
2019-05-12T07:46:49.306Z,8
2019-05-12T07:51:49.998Z,7
2019-05-12T07:56:50.565Z,7
2019-05-12T08:01:54.934Z,8
2019-05-12T08:06:55.471Z,8
2019-05-12T08:11:57.839Z,9
2019-05-12T08:17:01.777Z,8
2019-05-12T08:22:04.244Z,7
2019-05-12T08:27:06.325Z,7
2019-05-12T08:32:09.760Z,7
2019-05-12T08:37:10.531Z,7
2019-05-12T08:42:14.473Z,8
2019-05-12T08:47:15.252Z,7
2019-05-12T08:52:17.405Z,6
2019-05-12T08:57:19.829Z,7
2019-05-12T09:02:24.020Z,7
2019-05-12T09:07:24.680Z,7
2019-05-12T09:12:27.105Z,6
2019-05-12T09:17:29.600Z,6
2019-05-12T09:22:34.078Z,6
2019-05-12T09:27:34.484Z,6
2019-05-12T09:32:39.058Z,6
2019-05-12T09:37:40.535Z,5
2019-05-12T09:42:43.927Z,5
2019-05-12T09:47:44.194Z,5
2019-05-12T09:52:49.391Z,4
2019-05-12T09:57:49.156Z,5
2019-05-12T10:02:58.816Z,5
2019-05-12T10:07:53.962Z,5
2019-05-12T10:12:56.418Z,4
2019-05-12T10:18:00.091Z,3
2019-05-12T10:23:01.286Z,4
2019-05-12T10:28:11.276Z,3
2019-05-12T10:33:06.216Z,3
2019-05-12T10:38:10.586Z,3
2019-05-12T10:43:11.068Z,3
2019-05-12T10:48:14.095Z,3
2019-05-12T10:53:17.893Z,3
2019-05-12T10:58:18.534Z,3
2019-05-12T11:03:20.829Z,2
2019-05-12T11:08:24.659Z,2
2019-05-12T11:13:25.678Z,2
2019-05-12T11:18:30.374Z,2
2019-05-12T11:23:30.570Z,2
2019-05-12T11:28:33.608Z,2
2019-05-12T11:33:35.469Z,2
2019-05-12T11:38:38.020Z,2
2019-05-12T11:43:40.451Z,2
2019-05-12T11:48:46.138Z,2
2019-05-12T11:53:45.227Z,2
2019-05-12T11:58:51.380Z,2
2019-05-12T12:03:50.120Z,2
2019-05-12T12:08:53.652Z,1
2019-05-12T12:13:54.971Z,2
2019-05-12T12:19:02.467Z,2
2019-05-12T12:23:59.921Z,1
2019-05-12T12:29:03.292Z,1
2019-05-12T12:34:04.987Z,1
2019-05-12T12:39:07.197Z,1
2019-05-12T12:44:09.614Z,1
2019-05-12T12:49:13.898Z,1
2019-05-12T12:54:14.535Z,1
2019-05-12T12:59:16.955Z,1
2019-05-12T13:04:19.361Z,1
2019-05-12T13:09:24.407Z,1
2019-05-12T13:14:28.416Z,1
2019-05-12T13:19:26.697Z,1
2019-05-12T13:24:29.221Z,1
2019-05-12T13:29:35.276Z,1
2019-05-12T13:34:38.378Z,1
2019-05-12T13:39:36.502Z,1
2019-05-12T13:44:40.728Z,1
2019-05-12T13:49:45.138Z,1
2019-05-12T13:54:43.827Z,1
2019-05-12T13:59:46.249Z,1
2019-05-12T14:04:48.655Z,1
2019-05-12T14:09:52.289Z,1
2019-05-12T14:14:53.547Z,1
2019-05-12T14:19:55.988Z,1
2019-05-12T14:25:01.869Z,1
2019-05-12T14:30:09.290Z,1
2019-05-12T14:35:04.254Z,0
2019-05-12T14:40:06.480Z,1
2019-05-12T14:45:08.277Z,1
2019-05-12T14:50:10.652Z,1
2019-05-12T14:55:13.801Z,1
2019-05-12T15:00:20.821Z,1
2019-05-12T15:05:17.961Z,1
2019-05-12T15:10:20.414Z,1
2019-05-12T15:15:24.223Z,1
2019-05-12T15:20:25.413Z,1
2019-05-12T15:25:29.184Z,1
2019-05-12T15:30:30.320Z,1
2019-05-12T15:35:34.340Z,1
2019-05-12T15:40:35.589Z,1
2019-05-12T15:45:37.463Z,1
2019-05-12T15:50:43.261Z,1
2019-05-12T15:55:43.440Z,1
2019-05-12T16:00:44.778Z,1
2019-05-12T16:05:47.241Z,1
2019-05-12T16:10:49.830Z,1
2019-05-12T16:15:55.621Z,1
2019-05-12T16:20:58.810Z,1
2019-05-12T16:26:01.236Z,1
2019-05-12T16:31:04.870Z,0
2019-05-12T16:36:06.468Z,1
2019-05-12T16:41:04.344Z,1
2019-05-12T16:46:06.798Z,1
2019-05-12T16:51:09.651Z,1
2019-05-12T16:56:11.633Z,0
2019-05-12T17:01:14.482Z,1
2019-05-12T17:06:16.521Z,1
2019-05-12T17:11:26.276Z,0
2019-05-12T17:16:21.504Z,1
2019-05-12T17:21:24.604Z,1
2019-05-12T17:26:26.289Z,1
2019-05-12T17:31:28.773Z,0
2019-05-12T17:36:31.205Z,0
2019-05-12T17:41:40.197Z,1
2019-05-12T17:46:37.794Z,1
2019-05-12T17:51:38.514Z,1
2019-05-12T17:56:40.963Z,1
2019-05-12T18:01:43.635Z,1
2019-05-12T18:06:46.042Z,1
2019-05-12T18:11:52.471Z,1
2019-05-12T18:16:53.447Z,1
2019-05-12T18:21:54.692Z,1
2019-05-12T18:27:02.099Z,1
2019-05-12T18:31:58.083Z,1
2019-05-12T18:37:00.423Z,1
2019-05-12T18:42:03.487Z,1
2019-05-12T18:47:05.580Z,1
2019-05-12T18:52:07.771Z,1
2019-05-12T18:57:10.221Z,1
2019-05-12T19:02:14.474Z,1
2019-05-12T19:07:15.359Z,1
2019-05-12T19:12:21.075Z,2
2019-05-12T19:17:19.958Z,1
2019-05-12T19:22:24.295Z,1
2019-05-12T19:27:24.833Z,1
2019-05-12T19:32:28.253Z,1
2019-05-12T19:37:30.119Z,1
2019-05-12T19:42:32.329Z,1
2019-05-12T19:47:38.217Z,1
2019-05-12T19:52:37.090Z,1
2019-05-12T19:57:39.563Z,1
2019-05-12T20:02:42.030Z,1
2019-05-12T20:07:44.781Z,1
2019-05-12T20:12:48.673Z,1
2019-05-12T20:17:49.243Z,1
2019-05-12T20:22:53.934Z,1
2019-05-12T20:27:55.614Z,1
2019-05-12T20:32:56.671Z,1
2019-05-12T20:37:59.028Z,1
2019-05-12T20:43:11.448Z,1
2019-05-12T20:48:04.173Z,1
2019-05-12T20:53:06.308Z,1
2019-05-12T20:58:08.780Z,1
2019-05-12T21:03:13.556Z,1
2019-05-12T21:08:15.334Z,1
2019-05-12T21:13:20.217Z,1
2019-05-12T21:18:18.692Z,1
2019-05-12T21:23:20.990Z,1
2019-05-12T21:28:23.937Z,1
2019-05-12T21:33:25.855Z,1
2019-05-12T21:38:29.654Z,1
2019-05-12T21:43:30.735Z,1
2019-05-12T21:48:33.986Z,1
2019-05-12T21:53:35.595Z,1
2019-05-12T21:58:42.950Z,1
2019-05-12T22:03:45.752Z,1
2019-05-12T22:08:44.187Z,1
2019-05-12T22:18:47.996Z,1
2019-05-12T22:23:51.092Z,0
2019-05-12T22:28:53.674Z,1
2019-05-12T22:33:56.303Z,1
2019-05-12T22:39:00.682Z,0
2019-05-12T22:43:59.988Z,1
2019-05-12T22:49:04.140Z,1
2019-05-12T22:54:06.709Z,1
2019-05-12T22:59:07.352Z,1
2019-05-12T23:04:09.776Z,1
2019-05-12T23:09:12.216Z,0
2019-05-12T23:14:20.453Z,1
2019-05-12T23:19:17.053Z,1
2019-05-12T23:24:19.693Z,1
2019-05-12T23:29:26.599Z,1
2019-05-12T23:34:24.400Z,1
2019-05-12T23:39:26.854Z,1
2019-05-12T23:44:29.287Z,1
2019-05-12T23:49:33.622Z,1
2019-05-12T23:54:34.407Z,1
2019-05-12T23:59:36.719Z,1
